Ede, Netherlands
Current Conditions -  °F | °C
As of 3:25 AM on Sunday 23 Nov 2014 (Local Time) from EHDL Reporting Station
Haze Haze  
Wind Chill:   Ceiling: 10000
Heat Index:   Visibility: 6mi
Dew Point:   Wind: 3mph
Humidity: 93%   Direction: 150°SSE
Pressure: 30.06"   Gusts: NA
Location:  52.03°N, 5.66°E
Report Text: EHDL 230225Z AUTO 15003KT 9000 BR OVC100 09/08 Q1018 BLU
Loading
Personal Weather Stations






























Interactive Weather Map New forecast layout! Learn more

10-Day Weather Forecast

Advertisements
Track Severe Weather on mobile